createdAt,value
2022-12-04T00:01:29.274Z,27.67
2022-12-04T00:07:31.254Z,25.37
2022-12-04T00:13:37.562Z,35.00
2022-12-04T00:19:39.453Z,24.37
2022-12-04T00:25:42.021Z,24.57
2022-12-04T00:31:43.997Z,25.07
2022-12-04T00:37:45.932Z,28.27
2022-12-04T00:43:48.002Z,25.57
2022-12-04T00:49:53.658Z,23.67
2022-12-04T00:56:00.377Z,23.17
2022-12-04T01:02:14.189Z,24.80
2022-12-04T01:08:16.224Z,22.60
2022-12-04T01:14:36.008Z,22.43
2022-12-04T01:20:38.025Z,25.60
2022-12-04T01:26:39.960Z,30.83
2022-12-04T01:32:41.903Z,25.63
2022-12-04T01:38:44.364Z,27.67
2022-12-04T01:45:37.840Z,22.30
2022-12-04T01:51:48.196Z,26.13
2022-12-04T01:57:52.982Z,25.30
2022-12-04T02:04:00.543Z,29.23
2022-12-04T02:10:06.441Z,29.83
2022-12-04T02:16:33.750Z,27.03
2022-12-04T02:23:38.689Z,23.40
2022-12-04T02:30:08.172Z,28.90
2022-12-04T02:36:23.373Z,27.90
2022-12-04T02:42:51.525Z,20.97
2022-12-04T02:48:58.274Z,25.13
2022-12-04T02:55:14.274Z,24.87
2022-12-04T03:01:23.991Z,26.20
2022-12-04T03:07:38.769Z,23.30
2022-12-04T03:13:50.840Z,20.90
2022-12-04T03:19:58.881Z,21.63
2022-12-04T03:26:12.519Z,20.03
2022-12-04T03:32:43.266Z,20.67
2022-12-04T03:39:32.241Z,18.13
2022-12-04T03:46:04.183Z,19.87
2022-12-04T03:52:41.765Z,23.40
2022-12-04T03:58:54.729Z,17.17
2022-12-04T04:04:59.094Z,20.13
2022-12-04T04:11:53.148Z,21.20
2022-12-04T04:18:15.375Z,23.07
2022-12-04T04:24:43.425Z,18.80
2022-12-04T04:30:48.328Z,17.73
2022-12-04T04:36:56.089Z,18.60
2022-12-04T04:49:37.008Z,21.80
2022-12-04T04:55:39.660Z,20.17
2022-12-04T05:01:45.758Z,17.17
2022-12-04T05:07:47.771Z,17.80
2022-12-04T05:13:49.774Z,18.23
2022-12-04T05:19:58.243Z,15.53
2022-12-04T05:26:03.125Z,21.40
2022-12-04T05:32:11.186Z,19.30
2022-12-04T05:38:13.158Z,22.47
2022-12-04T05:44:15.461Z,22.30
2022-12-04T05:50:17.458Z,19.60
2022-12-04T05:56:19.380Z,19.23
2022-12-04T06:02:24.519Z,23.97
2022-12-04T06:08:26.492Z,21.00
2022-12-04T06:14:36.224Z,21.67
2022-12-04T06:20:41.224Z,17.83
2022-12-04T06:33:22.215Z,22.80
2022-12-04T06:39:24.139Z,21.23
2022-12-04T06:45:29.918Z,18.23
2022-12-04T06:51:39.961Z,20.63
2022-12-04T06:57:41.890Z,25.03
2022-12-04T07:03:49.506Z,22.40
2022-12-04T07:09:56.365Z,24.73
2022-12-04T07:16:02.194Z,29.47
2022-12-04T07:22:04.247Z,26.00
2022-12-04T07:28:06.336Z,25.27
2022-12-04T07:34:08.261Z,27.03
2022-12-04T07:40:10.971Z,25.67
2022-12-04T07:46:21.707Z,22.80
2022-12-04T07:52:23.698Z,27.73
2022-12-04T07:58:26.010Z,27.53
2022-12-04T08:04:28.122Z,32.00
2022-12-04T08:10:30.175Z,32.77
2022-12-04T08:16:34.117Z,37.23
2022-12-04T08:22:49.430Z,24.27
2022-12-04T08:28:54.630Z,27.63
2022-12-04T08:34:56.546Z,25.83
2022-12-04T08:41:08.429Z,29.20
2022-12-04T08:47:10.351Z,30.90
2022-12-04T08:53:18.378Z,32.53
2022-12-04T08:59:20.290Z,36.77
2022-12-04T09:05:22.483Z,33.53
2022-12-04T09:11:28.223Z,30.80
2022-12-04T09:17:35.291Z,32.23
2022-12-04T09:23:39.094Z,27.80
2022-12-04T09:29:40.999Z,30.43
2022-12-04T09:35:42.889Z,30.67
2022-12-04T09:42:20.564Z,31.27
2022-12-04T09:48:36.018Z,37.20
2022-12-04T09:54:44.829Z,33.27
2022-12-04T10:00:52.838Z,26.20
2022-12-04T10:07:18.724Z,27.03
2022-12-04T10:14:17.059Z,26.63
2022-12-04T10:20:25.086Z,36.03
2022-12-04T10:26:39.430Z,25.37
2022-12-04T10:39:42.211Z,35.70
2022-12-04T10:45:46.893Z,26.17
2022-12-04T10:51:49.260Z,28.27
2022-12-04T10:57:51.807Z,26.37
2022-12-04T11:04:08.263Z,24.43
2022-12-04T11:10:43.014Z,29.50
2022-12-04T11:17:01.394Z,32.07
2022-12-04T11:23:04.783Z,29.00
2022-12-04T11:29:21.493Z,24.37
2022-12-04T11:35:36.903Z,24.40
2022-12-04T11:41:39.318Z,27.50
2022-12-04T11:47:41.339Z,24.43
2022-12-04T11:53:48.936Z,28.33
2022-12-04T11:59:59.425Z,26.97
2022-12-04T12:06:53.811Z,26.07
2022-12-04T12:13:24.180Z,30.40
2022-12-04T12:20:01.160Z,33.53
2022-12-04T12:26:18.393Z,32.57
2022-12-04T12:32:49.068Z,27.47
2022-12-04T12:39:11.207Z,27.80
2022-12-04T12:45:44.186Z,31.17
2022-12-04T12:52:16.121Z,31.13
2022-12-04T12:58:47.322Z,32.63
2022-12-04T13:04:56.582Z,25.00
2022-12-04T13:11:07.474Z,35.40
2022-12-04T13:17:38.125Z,28.70
2022-12-04T13:24:13.539Z,28.43
2022-12-04T13:31:09.568Z,33.07
2022-12-04T13:37:50.229Z,38.27
2022-12-04T13:44:07.009Z,33.60
2022-12-04T13:50:29.912Z,43.03
2022-12-04T13:56:33.854Z,30.37
2022-12-04T14:02:37.832Z,29.50
2022-12-04T14:08:46.231Z,27.83
2022-12-04T14:15:08.292Z,33.40
2022-12-04T14:21:24.999Z,35.33
2022-12-04T14:27:42.371Z,28.50
2022-12-04T14:33:51.471Z,30.60
2022-12-04T14:39:56.479Z,27.33
2022-12-04T14:46:25.430Z,27.90
2022-12-04T14:52:50.043Z,34.27
2022-12-04T14:58:52.347Z,33.03
2022-12-04T15:04:55.041Z,28.93
2022-12-04T15:11:35.236Z,32.40
2022-12-04T15:17:37.168Z,34.60
2022-12-04T15:23:41.610Z,30.27
2022-12-04T15:29:48.302Z,28.63
2022-12-04T15:36:12.500Z,30.60
2022-12-04T15:42:26.614Z,31.00
2022-12-04T15:48:31.840Z,30.57
2022-12-04T15:54:38.280Z,27.10
2022-12-04T16:00:42.857Z,32.07
2022-12-04T16:06:50.879Z,26.37
2022-12-04T16:13:05.838Z,27.90
2022-12-04T16:19:42.038Z,27.43
2022-12-04T16:25:51.048Z,28.43
2022-12-04T16:32:02.898Z,29.80
2022-12-04T16:38:16.477Z,29.07
2022-12-04T16:44:28.590Z,27.83
2022-12-04T16:50:36.686Z,25.93
2022-12-04T16:56:38.676Z,22.53
2022-12-04T17:02:41.265Z,28.73
2022-12-04T17:08:43.642Z,24.73
2022-12-04T17:14:45.759Z,27.07
2022-12-04T17:20:49.871Z,28.17
2022-12-04T17:26:59.479Z,26.83
2022-12-04T17:33:01.351Z,24.70
2022-12-04T17:39:05.807Z,24.83
2022-12-04T17:45:10.668Z,25.20
2022-12-04T17:51:20.047Z,27.37
2022-12-04T17:57:25.190Z,23.87
2022-12-04T18:03:27.142Z,24.50
2022-12-04T18:09:29.276Z,27.27
2022-12-04T18:15:31.588Z,23.13
2022-12-04T18:21:38.248Z,23.53
2022-12-04T18:27:41.977Z,25.57
2022-12-04T18:33:48.367Z,19.70
2022-12-04T18:39:51.031Z,22.03
2022-12-04T18:46:07.723Z,23.57
2022-12-04T18:52:13.009Z,21.13
2022-12-04T18:58:28.775Z,21.20
2022-12-04T19:04:33.061Z,21.70
2022-12-04T19:10:35.098Z,22.90
2022-12-04T19:16:37.180Z,18.37
2022-12-04T19:22:49.109Z,19.43
2022-12-04T19:29:00.993Z,19.40
2022-12-04T19:35:03.017Z,20.97
2022-12-04T19:41:19.756Z,22.23
2022-12-04T19:47:32.407Z,28.10
2022-12-04T19:53:40.642Z,20.10
2022-12-04T19:59:46.640Z,24.43
2022-12-04T20:05:56.110Z,21.43
2022-12-04T20:11:58.227Z,17.20
2022-12-04T20:18:04.232Z,21.07
2022-12-04T20:30:28.789Z,22.80
2022-12-04T20:36:35.753Z,17.47
2022-12-04T20:42:49.993Z,19.80
2022-12-04T20:48:53.733Z,17.73
2022-12-04T20:54:58.600Z,18.37
2022-12-04T21:01:26.546Z,19.80
2022-12-04T21:07:31.737Z,20.07
2022-12-04T21:13:52.331Z,18.87
2022-12-04T21:20:00.375Z,15.73
2022-12-04T21:26:06.438Z,17.83
2022-12-04T21:32:11.092Z,16.33
2022-12-04T21:38:13.032Z,16.40
2022-12-04T21:44:22.601Z,19.47
2022-12-04T21:50:24.564Z,13.93
2022-12-04T21:56:27.125Z,17.20
2022-12-04T22:02:30.884Z,14.20
2022-12-04T22:08:37.134Z,14.97
2022-12-04T22:14:39.010Z,16.43
2022-12-04T22:20:42.554Z,18.10
2022-12-04T22:26:44.504Z,19.93
2022-12-04T22:32:46.490Z,17.10
2022-12-04T22:39:11.067Z,16.53
2022-12-04T22:45:16.199Z,14.50
2022-12-04T22:51:24.203Z,14.17
2022-12-04T22:57:26.318Z,17.47
2022-12-04T23:03:28.285Z,15.90
2022-12-04T23:09:47.540Z,21.03
2022-12-04T23:15:50.130Z,15.07
2022-12-04T23:21:56.955Z,17.27
2022-12-04T23:28:00.207Z,22.17
2022-12-04T23:40:19.889Z,20.53
2022-12-04T23:52:47.987Z,18.37
2022-12-04T23:58:53.329Z,19.67
